KJAS

Jasper County-Bell Field Airport

Jasper, Texas, USA
METAR KJAS 212055Z AUTO 03006KT 10SM CLR 21/07 A3023 RMK AO2 T02060071
Observed Flight Rules
Oct-21 @ 20:55 UTC (35 minutes ago) Visual Flight Rules
Wind Visibility Clouds
30° at 6 knots 10 miles
  • Clear skies
Temperatures Readings
Current 21°C / 70°F
Dewpoint 7°C / 45°F
Humidity 40%
Altimeter 30.23" Hg
Pressure 1024 hPa
Elevation 65
METAR KJAS 212055Z AUTO 03006KT 10SM CLR 21/07 A3023 RMK AO2 T02060071
Observed Flight Rules
Oct-21 @ 20:55 UTC
(35 minutes ago)
VFR
Wind Visibility
30° at 6 knots 10 miles
Clouds
  • Clear skies
Temperature Dewpoint
21°C / 70°F 7°C / 45°F
Humidity Altimeter Pressure
40% 30.23" Hg 1024 hPa